createdAt,value
2023-02-02T00:02:44.844Z,5.90
2023-02-02T00:06:50.474Z,5.90
2023-02-02T00:10:56.944Z,6.00
2023-02-02T00:15:00.469Z,6.00
2023-02-02T00:19:05.800Z,6.00
2023-02-02T00:23:10.144Z,6.10
2023-02-02T00:27:33.404Z,6.10
2023-02-02T00:31:38.575Z,6.00
2023-02-02T00:35:43.413Z,6.10
2023-02-02T00:39:53.269Z,6.10
2023-02-02T00:44:15.410Z,6.10
2023-02-02T00:48:19.509Z,6.10
2023-02-02T00:52:23.062Z,6.10
2023-02-02T00:56:26.543Z,6.00
2023-02-02T01:00:31.926Z,5.70
2023-02-02T01:04:35.327Z,5.60
2023-02-02T01:08:38.733Z,5.50
2023-02-02T01:12:42.320Z,5.40
2023-02-02T01:16:52.313Z,5.40
2023-02-02T01:20:59.037Z,5.30
2023-02-02T01:25:02.065Z,5.30
2023-02-02T01:29:06.577Z,5.20
2023-02-02T01:33:10.937Z,5.10
2023-02-02T01:37:15.085Z,5.00
2023-02-02T01:41:23.731Z,5.00
2023-02-02T01:45:29.041Z,4.90
2023-02-02T01:49:37.171Z,4.80
2023-02-02T01:53:42.788Z,4.80
2023-02-02T01:57:53.004Z,4.80
2023-02-02T02:01:56.743Z,4.80
2023-02-02T02:06:07.094Z,4.80
2023-02-02T02:10:11.335Z,4.80
2023-02-02T02:14:34.350Z,4.80
2023-02-02T02:18:46.535Z,4.80
2023-02-02T02:23:31.380Z,4.80
2023-02-02T02:28:07.580Z,4.80
2023-02-02T02:32:26.613Z,4.70
2023-02-02T02:36:38.131Z,4.20
2023-02-02T02:40:48.732Z,3.60
2023-02-02T02:44:52.397Z,3.20
2023-02-02T02:48:58.804Z,3.00
2023-02-02T02:53:05.388Z,2.80
2023-02-02T02:57:24.797Z,2.70
2023-02-02T03:01:36.794Z,2.60
2023-02-02T03:05:52.078Z,2.60
2023-02-02T03:09:59.698Z,2.50
2023-02-02T03:14:09.679Z,2.50
2023-02-02T03:18:15.561Z,2.50
2023-02-02T03:22:25.017Z,2.40
2023-02-02T03:26:31.265Z,2.40
2023-02-02T03:30:37.256Z,2.40
2023-02-02T03:34:45.976Z,2.30
2023-02-02T03:38:50.704Z,2.30
2023-02-02T03:42:53.795Z,2.30
2023-02-02T03:46:59.415Z,2.30
2023-02-02T03:51:02.512Z,2.30
2023-02-02T03:55:08.272Z,2.30
2023-02-02T03:59:12.769Z,2.30
2023-02-02T04:03:15.971Z,2.30
2023-02-02T04:07:23.881Z,2.30
2023-02-02T04:11:31.679Z,2.30
2023-02-02T04:15:34.802Z,2.40
2023-02-02T04:19:37.852Z,2.40
2023-02-02T04:23:40.905Z,2.40
2023-02-02T04:27:45.538Z,2.40
2023-02-02T04:31:51.037Z,2.50
2023-02-02T04:35:54.293Z,2.50
2023-02-02T04:39:57.387Z,2.50
2023-02-02T04:44:07.765Z,2.50
2023-02-02T04:48:13.741Z,2.50
2023-02-02T04:52:18.203Z,2.50
2023-02-02T04:56:22.470Z,2.60
2023-02-02T05:00:28.062Z,2.60
2023-02-02T05:04:35.481Z,2.60
2023-02-02T05:08:43.587Z,2.60
2023-02-02T05:12:46.564Z,2.70
2023-02-02T05:16:54.728Z,2.70
2023-02-02T05:21:00.026Z,2.70
2023-02-02T05:25:06.616Z,2.70
2023-02-02T05:29:09.925Z,2.70
2023-02-02T05:33:25.552Z,2.70
2023-02-02T05:37:28.893Z,2.70
2023-02-02T05:41:33.382Z,2.70
2023-02-02T05:45:38.460Z,2.70
2023-02-02T05:49:43.251Z,2.70
2023-02-02T05:53:46.509Z,2.60
2023-02-02T05:57:52.234Z,2.60
2023-02-02T06:01:55.685Z,2.60
2023-02-02T06:06:04.829Z,2.70
2023-02-02T06:10:12.964Z,2.70
2023-02-02T06:14:19.624Z,2.70
2023-02-02T06:18:22.643Z,2.80
2023-02-02T06:22:27.075Z,2.70
2023-02-02T06:26:33.800Z,2.70
2023-02-02T06:30:39.060Z,2.80
2023-02-02T06:34:42.100Z,2.80
2023-02-02T06:38:50.062Z,2.70
2023-02-02T06:42:57.470Z,2.70
2023-02-02T06:47:00.737Z,2.70
2023-02-02T06:51:05.769Z,2.80
2023-02-02T06:55:10.599Z,2.80
2023-02-02T06:59:16.218Z,2.80
2023-02-02T07:03:21.454Z,2.80
2023-02-02T07:07:24.549Z,2.80
2023-02-02T07:11:29.886Z,2.80
2023-02-02T07:15:40.490Z,2.80
2023-02-02T07:19:46.825Z,2.80
2023-02-02T07:23:50.162Z,2.80
2023-02-02T07:28:00.403Z,2.80
2023-02-02T07:32:06.520Z,2.80
2023-02-02T07:36:09.700Z,2.80
2023-02-02T07:40:13.812Z,2.90
2023-02-02T07:44:18.254Z,2.90
2023-02-02T07:48:24.157Z,2.90
2023-02-02T07:52:27.582Z,2.90
2023-02-02T07:56:30.675Z,3.00
2023-02-02T08:00:35.876Z,3.00
2023-02-02T08:04:39.392Z,2.90
2023-02-02T08:08:45.560Z,2.90
2023-02-02T08:12:48.594Z,2.90
2023-02-02T08:16:53.263Z,2.90
2023-02-02T08:20:59.896Z,2.90
2023-02-02T08:25:03.129Z,3.00
2023-02-02T08:29:11.508Z,3.00
2023-02-02T08:33:15.999Z,3.00
2023-02-02T08:37:19.264Z,3.10
2023-02-02T08:41:25.280Z,3.10
2023-02-02T08:46:03.904Z,3.10
2023-02-02T08:49:56.326Z,3.20
2023-02-02T08:54:01.179Z,3.20
2023-02-02T08:58:05.346Z,3.20
2023-02-02T09:02:08.425Z,3.30
2023-02-02T09:06:14.850Z,3.30
2023-02-02T09:10:18.707Z,3.40
2023-02-02T09:14:23.645Z,3.40
2023-02-02T09:18:26.784Z,3.40
2023-02-02T09:22:31.205Z,3.50
2023-02-02T09:26:36.930Z,3.60
2023-02-02T09:30:42.301Z,3.60
2023-02-02T09:34:45.377Z,3.70
2023-02-02T09:38:50.780Z,3.80
2023-02-02T09:43:04.230Z,3.80
2023-02-02T09:47:17.009Z,3.80
2023-02-02T09:51:28.422Z,3.80
2023-02-02T09:55:37.812Z,3.90
2023-02-02T09:59:45.635Z,3.90
2023-02-02T10:04:03.144Z,4.10
2023-02-02T10:08:18.469Z,4.10
2023-02-02T10:12:38.350Z,4.20
2023-02-02T10:16:42.695Z,4.20
2023-02-02T10:20:48.656Z,4.20
2023-02-02T10:24:52.539Z,4.20
2023-02-02T10:29:07.902Z,4.20
2023-02-02T10:33:21.499Z,4.20
2023-02-02T10:37:33.583Z,4.20
2023-02-02T10:41:48.830Z,4.10
2023-02-02T10:46:06.066Z,4.10
2023-02-02T10:50:17.997Z,4.20
2023-02-02T10:54:54.979Z,4.20
2023-02-02T10:59:05.703Z,4.30
2023-02-02T11:03:15.343Z,4.30
2023-02-02T11:07:21.061Z,4.30
2023-02-02T11:11:27.960Z,4.30
2023-02-02T11:15:35.334Z,4.30
2023-02-02T11:19:39.929Z,4.20
2023-02-02T11:23:56.248Z,4.00
2023-02-02T11:28:01.608Z,4.00
2023-02-02T11:32:20.469Z,4.00
2023-02-02T11:36:30.746Z,4.00
2023-02-02T11:40:36.638Z,4.00
2023-02-02T11:44:43.845Z,4.00
2023-02-02T11:48:52.237Z,4.00
2023-02-02T11:52:58.538Z,4.00
2023-02-02T11:57:03.912Z,3.90
2023-02-02T12:01:13.941Z,3.80
2023-02-02T12:05:37.769Z,3.70
2023-02-02T12:09:46.253Z,3.80
2023-02-02T12:14:02.803Z,3.80
2023-02-02T12:18:15.811Z,3.70
2023-02-02T12:22:34.004Z,3.70
2023-02-02T12:26:42.689Z,3.90
2023-02-02T12:30:59.042Z,4.10
2023-02-02T12:35:33.253Z,4.30
2023-02-02T12:39:51.341Z,4.40
2023-02-02T12:44:04.787Z,4.50
2023-02-02T12:48:20.902Z,4.60
2023-02-02T12:52:46.335Z,4.70
2023-02-02T12:56:58.994Z,4.80
2023-02-02T13:01:24.464Z,4.90
2023-02-02T13:05:44.256Z,4.90
2023-02-02T13:09:53.206Z,5.00
2023-02-02T13:14:03.495Z,5.00
2023-02-02T13:18:15.999Z,5.10
2023-02-02T13:22:23.284Z,5.10
2023-02-02T13:26:30.579Z,5.10
2023-02-02T13:30:38.380Z,5.10
2023-02-02T13:34:48.086Z,5.20
2023-02-02T13:38:54.812Z,5.20
2023-02-02T13:43:07.666Z,5.20
2023-02-02T13:47:17.623Z,5.10
2023-02-02T13:51:53.748Z,5.10
2023-02-02T13:56:12.053Z,5.10
2023-02-02T14:00:18.799Z,5.10
2023-02-02T14:04:25.552Z,5.10
2023-02-02T14:08:32.758Z,5.10
2023-02-02T14:12:38.800Z,5.10
2023-02-02T14:16:50.219Z,5.10
2023-02-02T14:20:53.513Z,5.20
2023-02-02T14:24:58.157Z,5.20
2023-02-02T14:29:03.051Z,4.80
2023-02-02T14:33:47.621Z,4.10
2023-02-02T14:38:00.498Z,3.70
2023-02-02T14:42:42.748Z,3.30
2023-02-02T14:46:49.302Z,3.10
2023-02-02T14:50:54.628Z,3.00
2023-02-02T14:54:58.335Z,2.90
2023-02-02T14:59:06.197Z,2.80
2023-02-02T15:03:57.792Z,2.80
2023-02-02T15:08:16.339Z,2.80
2023-02-02T15:12:34.006Z,2.80
2023-02-02T15:16:40.608Z,2.80
2023-02-02T15:20:53.402Z,2.80
2023-02-02T15:25:06.136Z,2.80
2023-02-02T15:29:19.953Z,2.80
2023-02-02T15:33:31.411Z,2.80
2023-02-02T15:37:40.403Z,2.70
2023-02-02T15:41:47.892Z,2.80
2023-02-02T15:46:02.820Z,2.70
2023-02-02T15:50:20.201Z,2.70
2023-02-02T15:54:27.343Z,2.70
2023-02-02T15:58:42.436Z,2.70
2023-02-02T16:02:47.576Z,2.70
2023-02-02T16:06:52.610Z,2.80
2023-02-02T16:11:07.496Z,2.80
2023-02-02T16:15:21.306Z,2.80
2023-02-02T16:19:26.262Z,2.80
2023-02-02T16:23:35.329Z,2.90
2023-02-02T16:27:46.803Z,2.90
2023-02-02T16:31:51.317Z,3.00
2023-02-02T16:35:54.423Z,3.00
2023-02-02T16:40:22.551Z,3.00
2023-02-02T16:44:38.611Z,3.10
2023-02-02T16:48:44.429Z,3.10
2023-02-02T16:52:54.161Z,3.10
2023-02-02T16:57:06.115Z,3.10
2023-02-02T17:01:17.099Z,3.10
2023-02-02T17:05:24.167Z,3.20
2023-02-02T17:09:34.534Z,3.10
2023-02-02T17:13:43.546Z,3.10
2023-02-02T17:17:48.491Z,3.20
2023-02-02T17:21:51.931Z,3.10
2023-02-02T17:25:55.815Z,3.10
2023-02-02T17:30:05.624Z,3.10
2023-02-02T17:34:13.483Z,3.10
2023-02-02T17:38:18.987Z,3.10
2023-02-02T17:42:28.138Z,3.10
2023-02-02T17:46:33.121Z,3.10
2023-02-02T17:50:37.862Z,3.10
2023-02-02T17:54:41.027Z,3.10
2023-02-02T17:58:47.803Z,3.10
2023-02-02T18:02:56.958Z,3.00
2023-02-02T18:07:00.470Z,3.10
2023-02-02T18:11:04.040Z,3.00
2023-02-02T18:15:11.123Z,3.10
2023-02-02T18:19:15.564Z,3.10
2023-02-02T18:23:19.159Z,3.10
2023-02-02T18:27:22.289Z,3.10
2023-02-02T18:31:25.418Z,3.10
2023-02-02T18:35:32.643Z,3.00
2023-02-02T18:39:38.790Z,3.00
2023-02-02T18:43:42.302Z,3.00
2023-02-02T18:47:45.340Z,3.00
2023-02-02T18:51:49.762Z,3.00
2023-02-02T18:55:52.887Z,3.00
2023-02-02T18:59:59.402Z,3.00
2023-02-02T19:04:02.614Z,3.00
2023-02-02T19:08:07.506Z,3.00
2023-02-02T19:12:18.820Z,3.00
2023-02-02T19:16:26.972Z,3.10
2023-02-02T19:20:31.935Z,3.10
2023-02-02T19:24:39.964Z,3.10
2023-02-02T19:28:43.328Z,3.10
2023-02-02T19:32:49.425Z,3.10
2023-02-02T19:36:52.461Z,3.10
2023-02-02T19:40:58.484Z,3.10
2023-02-02T19:45:02.971Z,3.10
2023-02-02T19:49:14.597Z,3.10
2023-02-02T19:53:21.277Z,3.10
2023-02-02T19:57:36.731Z,3.10
2023-02-02T20:01:40.619Z,3.00
2023-02-02T20:05:47.344Z,3.00
2023-02-02T20:09:50.404Z,3.00
2023-02-02T20:13:57.227Z,3.00
2023-02-02T20:18:07.684Z,3.00
2023-02-02T20:22:25.337Z,3.00
2023-02-02T20:26:34.239Z,3.00
2023-02-02T20:30:42.527Z,3.00
2023-02-02T20:34:48.611Z,3.00
2023-02-02T20:38:54.203Z,3.00
2023-02-02T20:42:58.425Z,3.00
2023-02-02T20:47:03.288Z,3.00
2023-02-02T20:51:09.807Z,3.00
2023-02-02T20:55:12.904Z,3.00
2023-02-02T20:59:19.793Z,3.00
2023-02-02T21:03:26.217Z,3.00
2023-02-02T21:07:30.811Z,3.00
2023-02-02T21:11:34.016Z,3.10
2023-02-02T21:15:36.991Z,3.10
2023-02-02T21:19:43.969Z,3.10
2023-02-02T21:23:54.209Z,3.10
2023-02-02T21:27:58.199Z,3.10
2023-02-02T21:32:07.355Z,3.10
2023-02-02T21:36:25.602Z,3.10
2023-02-02T21:40:30.536Z,3.10
2023-02-02T21:44:33.790Z,3.10
2023-02-02T21:48:42.080Z,3.10
2023-02-02T21:52:47.163Z,3.10
2023-02-02T21:56:50.454Z,3.10
2023-02-02T22:00:54.258Z,3.10
2023-02-02T22:05:00.239Z,3.10
2023-02-02T22:09:17.461Z,3.10
2023-02-02T22:13:23.356Z,3.20
2023-02-02T22:17:30.432Z,3.10
2023-02-02T22:21:33.907Z,3.10
2023-02-02T22:25:38.800Z,3.10
2023-02-02T22:29:42.566Z,3.10
2023-02-02T22:33:51.227Z,3.10
2023-02-02T22:37:54.321Z,3.10
2023-02-02T22:42:02.699Z,3.20
2023-02-02T22:46:08.373Z,3.30
2023-02-02T22:50:15.240Z,3.40
2023-02-02T22:54:23.172Z,3.60
2023-02-02T22:58:31.098Z,3.70
2023-02-02T23:02:36.261Z,3.80
2023-02-02T23:06:39.359Z,3.90
2023-02-02T23:10:42.596Z,4.00
2023-02-02T23:14:50.456Z,4.10
2023-02-02T23:18:59.013Z,4.20
2023-02-02T23:23:02.316Z,4.20
2023-02-02T23:27:05.540Z,4.20
2023-02-02T23:31:10.141Z,4.20
2023-02-02T23:35:13.156Z,4.30
2023-02-02T23:39:16.195Z,4.30
2023-02-02T23:43:23.635Z,4.20
2023-02-02T23:47:29.213Z,4.20
2023-02-02T23:51:35.853Z,4.20
2023-02-02T23:55:39.159Z,4.30
2023-02-02T23:59:42.421Z,4.30
